Time;durP1;ratioP1;P1;durP2;ratioP2;P2;SDS_P1;SDS_P2;PMS_P1;PMS_P2;Temp;Humidity;BMP_temperature;BMP_pressure;BME280_temperature;BME280_humidity;BME280_pressure;Samples;Min_cycle;Max_cycle;Signal;HPM_P1;HPM_P2
2021/04/24 00:02:05;;;;;;;6.83;2.80;;;;;;;2.71;68.48;99614.51;1768035;80;22003;-65
2021/04/24 00:04:33;;;;;;;5.45;2.75;;;;;;;2.69;68.64;99610.72;1779903;80;21215;-64
2021/04/24 00:07:00;;;;;;;6.35;2.70;;;;;;;2.66;68.64;99615.72;1771374;80;21295;-65
2021/04/24 00:09:28;;;;;;;4.97;2.20;;;;;;;2.65;68.88;99619.44;1778040;80;21179;-65
2021/04/24 00:11:55;;;;;;;5.80;2.10;;;;;;;2.68;68.88;99610.41;1766583;80;21320;-65
2021/04/24 00:14:23;;;;;;;6.17;2.10;;;;;;;2.73;69.01;99615.92;1776671;80;21492;-65
2021/04/24 00:16:50;;;;;;;5.60;2.27;;;;;;;2.71;69.09;99615.85;1768832;80;21125;-65
2021/04/24 00:19:18;;;;;;;3.77;2.40;;;;;;;2.66;69.34;99623.78;1775748;80;21153;-65
2021/04/24 00:21:46;;;;;;;6.42;2.70;;;;;;;2.65;69.47;99624.81;1772905;80;21166;-65
2021/04/24 00:24:13;;;;;;;7.03;2.30;;;;;;;2.67;69.65;99626.75;1773402;80;21181;-64
2021/04/24 00:26:41;;;;;;;7.53;2.80;;;;;;;2.70;69.62;99619.58;1783136;79;21145;-65
2021/04/24 00:29:08;;;;;;;7.45;3.22;;;;;;;2.68;70.01;99621.16;1778944;80;21529;-66
2021/04/24 00:31:36;;;;;;;9.25;2.70;;;;;;;2.61;70.56;99623.09;1766282;80;21270;-66
2021/04/24 00:34:04;;;;;;;7.03;2.80;;;;;;;2.62;70.34;99626.09;1764316;80;21172;-65
2021/04/24 00:36:32;;;;;;;4.47;2.15;;;;;;;2.67;70.34;99622.72;1770647;80;21535;-65
2021/04/24 00:39:00;;;;;;;5.72;2.30;;;;;;;2.66;70.34;99626.47;1770775;79;21688;-65
2021/04/24 00:41:27;;;;;;;5.22;2.25;;;;;;;2.63;70.52;99626.89;1764108;80;21569;-65
2021/04/24 00:43:55;;;;;;;5.00;2.22;;;;;;;2.58;70.79;99623.55;1770278;79;21600;-66
2021/04/24 00:46:22;;;;;;;5.15;2.33;;;;;;;2.59;70.74;99629.75;1765029;80;21603;-67
2021/04/24 00:48:50;;;;;;;4.90;2.45;;;;;;;2.62;71.05;99624.75;1765909;79;21636;-67
2021/04/24 00:51:19;;;;;;;5.17;2.58;;;;;;;2.63;70.69;99618.83;1773438;80;21153;-66
2021/04/24 00:53:47;;;;;;;5.97;2.65;;;;;;;2.56;71.06;99613.53;1761993;80;21557;-65
2021/04/24 00:56:14;;;;;;;5.90;2.52;;;;;;;2.51;71.44;99614.73;1763960;80;21157;-66
2021/04/24 00:58:41;;;;;;;4.37;1.95;;;;;;;2.53;71.60;99610.46;1745110;80;21156;-66
2021/04/24 01:01:09;;;;;;;4.42;2.20;;;;;;;2.57;71.46;99612.48;1744406;80;21129;-65
2021/04/24 01:03:36;;;;;;;6.70;2.02;;;;;;;2.51;72.14;99613.39;1769064;80;21622;-65
2021/04/24 01:06:04;;;;;;;6.05;2.35;;;;;;;2.46;72.17;99618.59;1767252;80;21145;-66
2021/04/24 01:08:32;;;;;;;2.90;1.60;;;;;;;2.42;72.39;99618.22;1761005;80;21183;-64
2021/04/24 01:11:00;;;;;;;4.95;1.72;;;;;;;2.41;72.88;99623.28;1755952;80;21192;-65
2021/04/24 01:13:27;;;;;;;3.20;1.77;;;;;;;2.43;72.51;99616.36;1770917;80;21585;-64
2021/04/24 01:15:55;;;;;;;4.75;2.35;;;;;;;2.39;73.00;99625.38;1767218;80;21153;-65
2021/04/24 01:18:22;;;;;;;3.47;1.95;;;;;;;2.34;72.82;99621.70;1769821;80;21105;-65
2021/04/24 01:20:49;;;;;;;7.03;2.70;;;;;;;2.32;73.15;99627.83;1774328;80;21192;-66
2021/04/24 01:23:18;;;;;;;5.92;3.08;;;;;;;2.32;73.05;99625.14;1723426;80;21152;-65
2021/04/24 01:25:46;;;;;;;6.80;2.70;;;;;;;2.32;73.12;99616.56;1766747;80;21197;-66
2021/04/24 01:28:13;;;;;;;6.95;3.72;;;;;;;2.28;73.33;99616.70;1761138;80;21160;-65
2021/04/24 01:30:44;;;;;;;5.55;2.40;;;;;;;2.22;73.54;99614.91;1750652;80;21441;-66
2021/04/24 01:33:13;;;;;;;5.87;2.47;;;;;;;2.24;73.56;99612.81;1773514;80;21276;-65
2021/04/24 01:35:43;;;;;;;4.78;2.67;;;;;;;2.27;73.85;99616.39;1764882;80;21585;-66
2021/04/24 01:38:11;;;;;;;5.30;2.47;;;;;;;2.25;73.88;99614.98;1765726;80;21578;-65
2021/04/24 01:40:39;;;;;;;4.85;2.30;;;;;;;2.20;74.29;99607.58;1778167;80;23022;-65
2021/04/24 01:43:07;;;;;;;6.35;2.37;;;;;;;2.22;74.21;99611.40;1763043;80;21162;-66
2021/04/24 01:45:36;;;;;;;4.87;2.15;;;;;;;2.25;74.01;99606.41;1773880;80;21628;-66
2021/04/24 01:48:06;;;;;;;4.95;2.50;;;;;;;2.25;74.11;99614.98;1784526;80;21149;-66
2021/04/24 01:50:39;;;;;;;5.75;2.33;;;;;;;2.18;74.35;99604.30;1773166;80;21644;-65
2021/04/24 01:53:08;;;;;;;4.87;2.08;;;;;;;2.19;74.60;99601.10;1773032;80;21160;-66
2021/04/24 01:55:38;;;;;;;5.35;2.17;;;;;;;2.26;74.34;99605.89;1768395;80;21244;-65
2021/04/24 01:58:08;;;;;;;4.75;2.30;;;;;;;2.29;74.26;99609.47;1767938;80;21677;-65
2021/04/24 02:00:41;;;;;;;5.55;2.47;;;;;;;2.22;74.34;99602.82;1765666;80;21158;-65
2021/04/24 02:03:12;;;;;;;6.33;2.90;;;;;;;2.23;74.42;99605.78;1772250;80;21181;-65
2021/04/24 02:05:41;;;;;;;8.60;4.05;;;;;;;2.30;74.07;99611.92;1766916;80;21383;-65
2021/04/24 02:08:13;;;;;;;8.48;4.20;;;;;;;2.25;74.07;99601.03;1757959;80;21162;-66
2021/04/24 02:10:42;;;;;;;10.32;4.30;;;;;;;2.19;74.20;99596.55;1760088;80;21597;-65
2021/04/24 02:13:19;;;;;;;10.28;4.22;;;;;;;2.20;74.19;99596.00;1766592;80;21173;-66
2021/04/24 02:15:48;;;;;;;6.53;3.60;;;;;;;2.23;74.06;99593.70;1761670;80;21130;-65
2021/04/24 02:18:16;;;;;;;7.92;4.08;;;;;;;2.17;74.25;99601.30;1761012;80;21276;-65
2021/04/24 02:20:44;;;;;;;6.50;3.67;;;;;;;2.09;74.46;99604.81;1760219;80;21452;-66
2021/04/24 02:23:13;;;;;;;6.78;2.65;;;;;;;2.04;74.75;99602.77;1773213;80;21271;-66
2021/04/24 02:25:45;;;;;;;6.85;3.25;;;;;;;2.06;74.61;99601.20;1764080;80;21252;-66
2021/04/24 02:28:13;;;;;;;6.80;3.55;;;;;;;2.02;74.63;99601.36;1778569;80;21133;-66
2021/04/24 02:30:40;;;;;;;8.80;3.72;;;;;;;1.92;74.95;99595.13;1760851;80;21658;-66
2021/04/24 02:33:08;;;;;;;9.75;4.22;;;;;;;1.89;75.26;99600.41;1770113;80;21300;-67
2021/04/24 02:35:49;;;;;;;15.83;6.25;;;;;;;1.92;75.16;99601.83;1765531;80;21811;-67
2021/04/24 02:38:21;;;;;;;16.67;8.23;;;;;;;1.93;75.03;99600.80;1763226;80;21557;-67
2021/04/24 02:40:48;;;;;;;16.97;7.67;;;;;;;1.86;75.37;99608.08;1757636;80;21131;-65
2021/04/24 02:43:16;;;;;;;18.40;8.48;;;;;;;1.80;75.85;99615.67;1768892;80;21604;-65
2021/04/24 02:45:44;;;;;;;13.48;5.75;;;;;;;1.85;75.86;99613.97;1774645;80;21186;-65
2021/04/24 02:48:12;;;;;;;11.73;5.35;;;;;;;1.91;75.57;99609.06;1764416;80;21184;-65
2021/04/24 02:50:40;;;;;;;14.70;7.97;;;;;;;1.89;75.65;99615.18;1769212;80;21181;-64
2021/04/24 02:53:07;;;;;;;8.60;4.65;;;;;;;1.87;75.70;99619.13;1728577;80;21193;-63
2021/04/24 02:55:35;;;;;;;10.13;4.95;;;;;;;1.93;75.54;99618.25;1730934;82;21165;-64
2021/04/24 02:58:04;;;;;;;15.58;8.30;;;;;;;1.96;75.35;99621.32;1728657;82;21163;-65
2021/04/24 03:00:31;;;;;;;11.83;5.85;;;;;;;1.91;75.47;99614.98;1722056;82;21563;-65
2021/04/24 03:03:07;;;;;;;11.93;5.87;;;;;;;1.91;75.59;99617.66;1734566;82;21162;-65
2021/04/24 03:05:35;;;;;;;11.95;5.08;;;;;;;1.96;75.38;99619.15;1698416;82;21126;-65
2021/04/24 03:08:04;;;;;;;10.18;4.85;;;;;;;1.99;75.39;99618.70;1732098;82;21165;-65
2021/04/24 03:10:32;;;;;;;8.48;3.75;;;;;;;1.97;75.59;99618.95;1702590;84;21600;-67
2021/04/24 03:13:01;;;;;;;6.72;2.90;;;;;;;2.06;75.46;99618.13;1690538;84;21165;-65
2021/04/24 03:15:29;;;;;;;6.22;3.10;;;;;;;2.15;75.23;99618.17;1696584;84;21217;-65
2021/04/24 03:17:56;;;;;;;7.58;2.20;;;;;;;2.18;75.28;99628.98;1695678;84;21199;-65
2021/04/24 03:20:24;;;;;;;5.50;2.40;;;;;;;2.22;75.39;99634.22;1658072;85;21181;-66
2021/04/24 03:22:51;;;;;;;5.10;2.30;;;;;;;2.30;74.94;99630.72;1681012;84;21309;-65
2021/04/24 03:25:19;;;;;;;6.15;2.77;;;;;;;2.36;74.85;99631.72;1689907;84;21604;-65
2021/04/24 03:27:46;;;;;;;6.28;2.77;;;;;;;2.34;74.99;99633.27;1676362;84;21184;-66
2021/04/24 03:30:15;;;;;;;6.30;2.20;;;;;;;2.35;75.09;99634.09;1678162;84;21228;-65
2021/04/24 03:32:42;;;;;;;4.92;2.08;;;;;;;2.48;74.81;99633.95;1667133;84;21156;-66
2021/04/24 03:35:10;;;;;;;5.45;2.27;;;;;;;2.54;74.55;99636.30;1676790;85;21638;-65
2021/04/24 03:37:38;;;;;;;5.95;2.52;;;;;;;2.51;74.70;99636.23;1689117;84;21184;-65
2021/04/24 03:40:07;;;;;;;5.20;1.98;;;;;;;2.56;74.50;99644.95;1656435;85;21371;-65
2021/04/24 03:42:35;;;;;;;4.65;2.42;;;;;;;2.65;74.34;99646.32;1683350;82;21202;-65
2021/04/24 03:45:17;;;;;;;5.92;2.25;;;;;;;2.66;74.42;99654.69;1654469;85;21301;-66
2021/04/24 03:47:35;;;;;;;5.78;2.47;;;;;;;2.64;74.70;99662.13;1673258;84;21779;-64
2021/04/24 03:50:03;;;;;;;5.70;2.70;;;;;;;2.69;74.55;99663.13;1701879;84;21177;-64
2021/04/24 03:52:31;;;;;;;8.68;2.87;;;;;;;2.79;74.34;99658.05;1682933;83;21622;-66
2021/04/24 03:54:59;;;;;;;4.55;2.70;;;;;;;2.81;74.26;99662.67;1675991;85;21325;-64
2021/04/24 03:57:26;;;;;;;7.10;2.95;;;;;;;2.81;74.15;99659.16;1613334;84;21790;-65
2021/04/24 03:59:54;;;;;;;6.58;2.70;;;;;;;2.83;74.14;99664.63;1676029;85;21156;-65
2021/04/24 04:02:21;;;;;;;4.85;2.67;;;;;;;2.90;74.10;99661.87;1678219;85;21252;-65
2021/04/24 04:04:49;;;;;;;7.08;2.87;;;;;;;3.00;73.93;99664.85;1677055;84;21610;-64
2021/04/24 04:07:16;;;;;;;5.65;2.67;;;;;;;2.99;73.80;99663.20;1674888;85;21186;-65
2021/04/24 04:09:44;;;;;;;7.12;3.35;;;;;;;2.99;73.81;99676.13;1682190;84;21178;-64
2021/04/24 04:12:12;;;;;;;8.25;3.22;;;;;;;3.09;73.47;99677.45;1667454;85;21169;-65
2021/04/24 04:14:39;;;;;;;5.85;3.40;;;;;;;3.18;73.35;99676.13;1688980;84;21184;-64
2021/04/24 04:17:07;;;;;;;5.72;3.42;;;;;;;3.21;73.17;99675.16;1678580;84;21620;-66
2021/04/24 04:19:35;;;;;;;12.43;5.37;;;;;;;3.21;73.34;99677.84;1687289;84;21182;-64
2021/04/24 04:22:03;;;;;;;11.90;6.60;;;;;;;3.28;73.07;99683.97;1700603;84;21157;-65
2021/04/24 04:24:30;;;;;;;13.58;7.80;;;;;;;3.39;72.71;99675.66;1666766;85;21305;-66
2021/04/24 04:26:58;;;;;;;13.68;6.35;;;;;;;3.40;72.58;99685.38;1648629;85;21669;-66
2021/04/24 04:29:25;;;;;;;8.98;5.75;;;;;;;3.32;71.96;99678.95;1684726;85;21596;-65
2021/04/24 04:31:53;;;;;;;12.65;7.17;;;;;;;3.40;72.23;99688.86;1688319;84;21621;-66
2021/04/24 04:34:20;;;;;;;8.28;4.60;;;;;;;3.46;72.49;99699.27;1678718;85;21177;-66
2021/04/24 04:36:49;;;;;;;9.73;4.37;;;;;;;3.46;72.51;99697.41;1669593;85;21206;-66
2021/04/24 04:39:17;;;;;;;7.58;4.15;;;;;;;3.45;73.07;99696.27;1673537;85;21227;-66
2021/04/24 04:41:44;;;;;;;5.90;3.27;;;;;;;3.55;72.99;99690.34;1675836;85;21617;-66
2021/04/24 04:44:12;;;;;;;5.62;3.02;;;;;;;3.54;73.04;99694.92;1683882;84;21334;-67
2021/04/24 04:46:40;;;;;;;4.85;2.45;;;;;;;3.50;73.06;99682.97;1687722;84;21335;-66
2021/04/24 04:49:07;;;;;;;6.03;2.70;;;;;;;3.46;73.01;99678.56;1689857;84;21215;-65
2021/04/24 04:51:35;;;;;;;4.75;2.52;;;;;;;3.52;72.73;99682.20;1696107;84;21185;-65
2021/04/24 04:54:04;;;;;;;4.65;2.45;;;;;;;3.55;72.91;99690.34;1696579;84;21164;-65
2021/04/24 04:56:31;;;;;;;7.05;3.22;;;;;;;3.55;73.01;99686.30;1700394;83;21170;-65
2021/04/24 04:58:58;;;;;;;7.90;3.30;;;;;;;3.59;72.53;99686.14;1712992;83;21143;-65
2021/04/24 05:01:26;;;;;;;8.28;3.62;;;;;;;3.68;72.15;99680.77;1724062;83;21157;-65
2021/04/24 05:03:54;;;;;;;4.97;2.33;;;;;;;3.69;71.92;99678.34;1715424;83;21147;-65
2021/04/24 05:06:23;;;;;;;5.03;2.60;;;;;;;3.68;71.88;99680.23;1712700;83;21307;-66
2021/04/24 05:08:50;;;;;;;3.80;2.33;;;;;;;3.73;71.41;99672.80;1700728;83;21332;-66
2021/04/24 05:11:19;;;;;;;4.70;2.27;;;;;;;3.79;70.24;99684.02;1684222;85;21157;-65
2021/04/24 05:13:47;;;;;;;4.62;2.20;;;;;;;3.89;70.21;99682.42;1692665;83;21202;-64
2021/04/24 05:16:15;;;;;;;5.62;3.00;;;;;;;3.90;70.06;99679.17;1700869;83;21602;-64
2021/04/24 05:18:43;;;;;;;5.67;2.60;;;;;;;3.95;69.48;99682.84;1700621;84;21186;-64
2021/04/24 05:21:10;;;;;;;4.90;2.75;;;;;;;4.05;69.23;99685.48;1697792;84;21163;-65
2021/04/24 05:23:38;;;;;;;6.53;2.80;;;;;;;4.16;68.81;99685.52;1706586;83;21138;-65
2021/04/24 05:26:05;;;;;;;4.42;2.17;;;;;;;4.19;68.76;99684.22;1682292;84;21622;-66
2021/04/24 05:28:32;;;;;;;4.33;2.30;;;;;;;4.18;68.36;99687.44;1683139;84;21308;-65
2021/04/24 05:31:00;;;;;;;6.22;2.25;;;;;;;4.21;68.57;99685.66;1711920;83;21198;-65
2021/04/24 05:33:28;;;;;;;4.50;2.50;;;;;;;4.33;67.84;99692.39;1682994;83;21633;-65
2021/04/24 05:35:56;;;;;;;7.17;2.52;;;;;;;4.34;66.41;99687.30;1720602;83;21118;-66
2021/04/24 05:38:24;;;;;;;8.88;3.10;;;;;;;4.27;66.41;99689.28;1710943;83;21166;-66
2021/04/24 05:40:52;;;;;;;7.78;3.27;;;;;;;4.25;67.10;99692.20;1715379;83;21574;-64
2021/04/24 05:43:19;;;;;;;4.72;2.27;;;;;;;4.31;66.43;99693.16;1728676;82;21193;-66
2021/04/24 05:45:47;;;;;;;4.83;2.17;;;;;;;4.28;65.52;99690.94;1698260;83;21164;-66
2021/04/24 05:48:15;;;;;;;6.75;2.40;;;;;;;4.20;66.15;99696.13;1682443;84;21208;-67
2021/04/24 05:50:43;;;;;;;5.62;2.20;;;;;;;4.23;66.88;99702.40;1687221;84;21182;-65
2021/04/24 05:53:10;;;;;;;4.65;2.45;;;;;;;4.27;66.61;99708.97;1679156;84;21130;-65
2021/04/24 05:55:39;;;;;;;11.50;3.50;;;;;;;4.43;66.47;99703.41;1698438;83;21631;-65
2021/04/24 05:58:06;;;;;;;5.35;3.10;;;;;;;4.42;66.21;99702.63;1684620;84;21213;-64
2021/04/24 06:00:34;;;;;;;5.65;2.52;;;;;;;4.41;66.79;99699.62;1688417;84;21585;-65
2021/04/24 06:03:01;;;;;;;5.78;2.62;;;;;;;4.47;67.41;99695.98;1697175;84;21181;-64
2021/04/24 06:05:29;;;;;;;5.00;2.15;;;;;;;4.72;64.76;99697.63;1681837;84;21326;-64
2021/04/24 06:07:58;;;;;;;5.53;2.50;;;;;;;4.98;63.28;99702.56;1683859;84;21184;-64
2021/04/24 06:10:26;;;;;;;4.95;2.20;;;;;;;5.19;63.07;99700.59;1697224;84;21189;-66
2021/04/24 06:12:54;;;;;;;4.08;2.33;;;;;;;5.42;61.08;99697.03;1699826;83;21169;-64
2021/04/24 06:15:23;;;;;;;3.15;1.55;;;;;;;5.61;60.80;99692.25;1690698;84;21633;-65
2021/04/24 06:17:51;;;;;;;3.50;1.75;;;;;;;5.63;57.31;99690.98;1668545;84;21160;-65
2021/04/24 06:20:20;;;;;;;3.67;1.80;;;;;;;5.69;56.53;99690.53;1674880;85;21305;-65
2021/04/24 06:22:47;;;;;;;4.20;1.50;;;;;;;5.89;56.44;99687.70;1690488;83;21486;-65
2021/04/24 06:25:17;;;;;;;7.37;3.20;;;;;;;5.97;51.97;99690.55;1706868;83;21211;-65
2021/04/24 06:27:45;;;;;;;3.70;1.20;;;;;;;5.99;51.66;99687.06;1677452;85;21605;-66
2021/04/24 06:30:15;;;;;;;3.50;1.30;;;;;;;5.98;50.27;99697.08;1712015;83;21311;-66
2021/04/24 06:32:43;;;;;;;3.72;1.87;;;;;;;6.11;52.02;99689.70;1697591;83;21614;-67
2021/04/24 06:35:12;;;;;;;4.37;2.22;;;;;;;6.23;51.19;99683.71;1703408;83;21165;-65
2021/04/24 06:37:39;;;;;;;2.77;0.90;;;;;;;6.27;51.25;99688.36;1679927;85;21210;-68
2021/04/24 06:40:09;;;;;;;3.98;1.20;;;;;;;6.27;49.51;99694.33;1699991;83;21205;-66
2021/04/24 06:42:36;;;;;;;3.60;1.12;;;;;;;6.27;47.92;99691.62;1700039;83;21319;-67
2021/04/24 06:45:05;;;;;;;3.02;1.27;;;;;;;6.38;49.31;99686.64;1677388;85;21686;-67
2021/04/24 06:47:33;;;;;;;7.70;1.22;;;;;;;6.47;44.86;99691.95;1674664;85;21249;-66
2021/04/24 06:50:00;;;;;;;2.25;0.68;;;;;;;6.68;44.91;99690.38;1665788;85;21651;-65
2021/04/24 06:52:28;;;;;;;2.02;0.90;;;;;;;6.83;42.42;99682.50;1683456;84;21275;-65
2021/04/24 06:54:55;;;;;;;2.10;0.70;;;;;;;6.87;43.79;99685.00;1685109;84;21180;-64
2021/04/24 06:57:22;;;;;;;5.67;0.75;;;;;;;6.71;43.04;99692.59;1678463;84;21205;-66
2021/04/24 06:59:50;;;;;;;3.72;0.78;;;;;;;6.52;44.45;99694.72;1685752;84;21219;-65
2021/04/24 07:02:18;;;;;;;1.70;0.60;;;;;;;6.64;45.23;99698.17;1691090;84;21204;-64
2021/04/24 07:04:45;;;;;;;3.05;1.20;;;;;;;6.73;44.60;99692.61;1680591;84;21675;-66
2021/04/24 07:07:13;;;;;;;3.40;1.25;;;;;;;6.83;45.15;99692.79;1681977;84;21141;-66
2021/04/24 07:09:41;;;;;;;3.12;1.10;;;;;;;6.96;43.52;99695.67;1675039;84;21219;-67
2021/04/24 07:12:11;;;;;;;2.85;1.27;;;;;;;6.99;44.13;99689.22;1697848;84;21323;-66
2021/04/24 07:14:40;;;;;;;3.10;0.80;;;;;;;6.97;42.82;99688.67;1695334;84;21303;-67
2021/04/24 07:17:08;;;;;;;3.02;1.02;;;;;;;7.10;44.16;99696.95;1698945;83;21197;-66
2021/04/24 07:19:37;;;;;;;2.77;1.00;;;;;;;7.27;41.99;99696.36;1685030;84;21271;-64
2021/04/24 07:22:05;;;;;;;3.37;1.77;;;;;;;7.39;42.57;99689.48;1686727;84;21205;-65
2021/04/24 07:24:32;;;;;;;1.82;1.00;;;;;;;7.54;42.61;99695.63;1683526;84;21331;-67
2021/04/24 07:27:00;;;;;;;3.25;1.50;;;;;;;7.66;39.96;99651.05;1683526;84;21169;-67
2021/04/24 07:29:27;;;;;;;3.50;1.55;;;;;;;7.47;40.05;99700.67;1687266;84;21322;-66
2021/04/24 07:31:56;;;;;;;3.15;1.22;;;;;;;7.15;41.19;99701.09;1681311;84;21141;-64
2021/04/24 07:34:24;;;;;;;3.15;1.10;;;;;;;6.75;43.02;99706.73;1692091;84;21161;-66
2021/04/24 07:36:51;;;;;;;4.15;0.90;;;;;;;6.56;41.80;99693.70;1684515;84;21173;-64
2021/04/24 07:39:19;;;;;;;1.92;0.80;;;;;;;6.55;41.55;99706.42;1692137;84;21668;-67
2021/04/24 07:41:46;;;;;;;1.32;0.57;;;;;;;6.74;42.35;99712.37;1684999;84;21176;-66
2021/04/24 07:44:13;;;;;;;3.08;0.80;;;;;;;7.12;42.63;99719.16;1694060;84;21185;-67
2021/04/24 07:46:41;;;;;;;1.92;0.70;;;;;;;7.19;39.56;99702.77;1690059;84;21299;-66
2021/04/24 07:49:09;;;;;;;1.77;0.60;;;;;;;7.05;40.27;99716.38;1692379;84;21181;-67
2021/04/24 07:51:36;;;;;;;1.85;0.60;;;;;;;6.95;39.96;99718.37;1685727;84;21165;-65
2021/04/24 07:54:04;;;;;;;2.22;0.60;;;;;;;7.09;39.34;99712.89;1701171;83;21184;-66
2021/04/24 07:56:32;;;;;;;4.03;1.25;;;;;;;7.11;39.62;99727.02;1712336;83;21235;-66
2021/04/24 07:59:00;;;;;;;3.42;1.32;;;;;;;7.13;39.91;99723.52;1726877;83;21602;-66
2021/04/24 08:01:28;;;;;;;7.42;4.78;;;;;;;7.29;40.03;99726.73;1711382;83;21169;-67
2021/04/24 08:03:55;;;;;;;3.92;0.90;;;;;;;7.46;40.30;99730.20;1765005;80;21158;-66
2021/04/24 08:06:22;;;;;;;2.65;0.62;;;;;;;7.57;41.08;99731.15;1766993;80;21582;-66
2021/04/24 08:08:50;;;;;;;3.25;0.85;;;;;;;7.59;40.65;99724.93;1764168;80;21198;-67
2021/04/24 08:11:18;;;;;;;2.37;0.80;;;;;;;7.49;40.98;99726.98;1758670;80;21624;-64
2021/04/24 08:13:45;;;;;;;2.67;0.70;;;;;;;7.15;39.81;99735.46;1752655;80;21202;-66
2021/04/24 08:16:14;;;;;;;4.75;0.80;;;;;;;6.94;39.74;99741.12;1768270;80;21159;-66
2021/04/24 08:18:42;;;;;;;2.47;0.98;;;;;;;6.85;41.49;99733.94;1754651;80;21132;-67
2021/04/24 08:21:09;;;;;;;3.75;1.55;;;;;;;6.94;41.54;99733.00;1742315;81;21146;-66
2021/04/24 08:23:38;;;;;;;3.22;1.00;;;;;;;7.12;39.43;99729.98;1760074;80;21151;-66
2021/04/24 08:26:05;;;;;;;4.10;2.25;;;;;;;7.38;39.68;99734.70;1755890;80;21556;-66
2021/04/24 08:28:33;;;;;;;4.08;1.00;;;;;;;7.39;38.62;99738.23;1760984;80;21494;-65
2021/04/24 08:31:00;;;;;;;2.92;1.60;;;;;;;7.32;38.23;99735.70;1760210;80;21350;-65
2021/04/24 08:33:28;;;;;;;2.87;1.17;;;;;;;7.53;40.20;99734.61;1754289;80;21624;-66
2021/04/24 08:35:56;;;;;;;2.98;0.90;;;;;;;7.64;40.12;99745.86;1758928;80;21145;-67
2021/04/24 08:38:24;;;;;;;2.83;1.00;;;;;;;7.30;39.23;99743.24;1764275;80;21205;-65
2021/04/24 08:40:52;;;;;;;8.98;6.72;;;;;;;6.98;39.65;99740.88;1720615;82;21163;-67
2021/04/24 08:43:19;;;;;;;26.12;19.70;;;;;;;7.08;40.70;99738.34;1717107;83;21715;-63
2021/04/24 08:45:47;;;;;;;18.50;14.05;;;;;;;7.39;38.18;99748.53;1775919;80;21644;-66
2021/04/24 08:48:15;;;;;;;2.33;1.20;;;;;;;7.58;39.37;99740.10;1773051;80;21189;-65
2021/04/24 08:50:43;;;;;;;5.33;2.30;;;;;;;7.71;38.60;99745.12;1713184;80;21265;-67
2021/04/24 08:53:11;;;;;;;5.28;1.55;;;;;;;7.46;39.13;99750.52;1733024;80;21144;-66
2021/04/24 08:55:38;;;;;;;2.98;0.98;;;;;;;7.16;39.21;99743.84;1766998;80;21194;-65
2021/04/24 08:58:06;;;;;;;1.98;0.53;;;;;;;7.17;40.06;99743.61;1767350;80;21197;-65
2021/04/24 09:00:37;;;;;;;1.42;0.50;;;;;;;7.40;39.28;99739.31;1758013;80;21165;-64
2021/04/24 09:03:09;;;;;;;2.62;0.78;;;;;;;7.61;39.21;99720.63;1759172;80;21196;-67
2021/04/24 09:05:38;;;;;;;1.55;0.50;;;;;;;7.74;37.49;99731.07;1763657;80;21335;-66
2021/04/24 09:08:07;;;;;;;1.27;0.72;;;;;;;7.77;38.48;99745.46;1760776;80;21173;-71
2021/04/24 09:10:44;;;;;;;1.17;0.40;;;;;;;7.59;38.60;99739.83;1764537;80;21185;-67
2021/04/24 09:13:20;;;;;;;2.52;0.60;;;;;;;7.59;39.39;99739.00;1756611;80;21157;-66
2021/04/24 09:15:47;;;;;;;2.47;1.00;;;;;;;7.66;41.28;99749.13;1766924;80;21271;-66
2021/04/24 09:18:18;;;;;;;3.22;0.53;;;;;;;7.83;39.50;99751.25;1761428;80;21139;-66
2021/04/24 09:20:56;;;;;;;2.05;0.40;;;;;;;7.92;39.83;99750.53;1763116;80;21597;-67
2021/04/24 09:23:34;;;;;;;1.55;0.50;;;;;;;7.94;38.27;99738.89;1763561;80;21586;-65
2021/04/24 09:26:09;;;;;;;1.45;0.60;;;;;;;7.85;37.53;99740.96;1773478;80;21565;-67
2021/04/24 09:28:41;;;;;;;1.70;0.57;;;;;;;7.84;39.41;99748.27;1755946;80;21293;-66
2021/04/24 09:31:22;;;;;;;1.30;0.42;;;;;;;7.93;38.05;99737.27;1761062;80;21118;-67
2021/04/24 09:33:53;;;;;;;1.20;0.68;;;;;;;8.21;38.54;99734.03;1750157;80;21156;-65
2021/04/24 09:36:23;;;;;;;3.92;1.52;;;;;;;8.48;35.85;99738.38;1750716;80;21146;-65
2021/04/24 09:38:55;;;;;;;2.15;0.60;;;;;;;8.44;37.68;99745.40;1773670;80;21645;-66
2021/04/24 09:41:28;;;;;;;2.95;0.50;;;;;;;8.37;37.19;99739.36;1754441;80;21615;-66
2021/04/24 09:44:07;;;;;;;2.20;0.53;;;;;;;8.17;36.71;99746.45;1767965;80;21161;-67
2021/04/24 09:46:56;;;;;;;2.20;0.50;;;;;;;7.73;36.91;99749.22;1752840;80;21610;-67
2021/04/24 09:49:31;;;;;;;1.60;0.50;;;;;;;7.54;38.74;99770.11;1757725;80;21117;-65
2021/04/24 09:52:02;;;;;;;1.27;0.50;;;;;;;7.63;39.19;99749.09;1765016;80;21165;-67
2021/04/24 09:54:47;;;;;;;4.33;0.60;;;;;;;7.86;38.09;99744.78;1770158;80;21129;-68
2021/04/24 09:57:21;;;;;;;4.87;1.80;;;;;;;8.08;38.58;99754.22;1773108;80;21137;-66
2021/04/24 10:00:05;;;;;;;3.40;1.17;;;;;;;8.10;38.33;99759.39;1760657;80;21171;-67
2021/04/24 10:02:44;;;;;;;2.40;0.90;;;;;;;8.15;37.89;99754.83;1759608;80;21136;-65
2021/04/24 10:05:19;;;;;;;3.30;1.32;;;;;;;7.98;38.44;99766.30;1766303;80;21149;-65
2021/04/24 10:07:56;;;;;;;3.27;1.20;;;;;;;7.92;37.14;99757.31;1733154;82;21604;-66
2021/04/24 10:10:34;;;;;;;3.60;1.10;;;;;;;7.94;38.57;99765.17;1763998;80;21592;-67
2021/04/24 10:13:08;;;;;;;2.92;1.10;;;;;;;8.10;38.48;99754.80;1756955;80;21149;-66
2021/04/24 10:15:42;;;;;;;2.52;0.90;;;;;;;8.24;39.21;99755.20;1759776;80;21181;-67
2021/04/24 10:18:12;;;;;;;2.42;1.02;;;;;;;8.33;38.57;99749.09;1761684;80;21151;-67
2021/04/24 10:20:44;;;;;;;2.55;1.20;;;;;;;8.52;38.51;99756.86;1759050;80;21313;-68
2021/04/24 10:23:12;;;;;;;6.15;2.80;;;;;;;8.76;36.62;99752.18;1761742;80;21106;-66
2021/04/24 10:25:40;;;;;;;5.80;2.80;;;;;;;8.92;37.69;99768.88;1762313;80;21734;-67
2021/04/24 10:28:08;;;;;;;5.30;1.85;;;;;;;8.78;37.65;99754.66;1755511;80;21151;-67
2021/04/24 10:30:38;;;;;;;2.98;1.17;;;;;;;8.62;36.12;99758.30;1748234;80;21625;-67
2021/04/24 10:33:06;;;;;;;1.75;0.72;;;;;;;8.14;37.06;99715.26;1759285;80;21157;-66
2021/04/24 10:35:34;;;;;;;1.90;0.78;;;;;;;8.31;37.38;99757.20;1758106;80;21157;-67
2021/04/24 10:38:03;;;;;;;2.05;0.80;;;;;;;8.26;36.60;99755.75;1759323;80;21138;-68
2021/04/24 10:40:30;;;;;;;2.87;0.62;;;;;;;8.22;36.77;99763.59;1755196;80;21589;-66
2021/04/24 10:42:59;;;;;;;1.37;0.35;;;;;;;8.19;34.15;99760.03;1729408;80;21156;-67
2021/04/24 10:45:31;;;;;;;1.20;0.50;;;;;;;8.18;34.43;99762.48;1743921;81;21187;-65
2021/04/24 10:47:58;;;;;;;2.30;0.75;;;;;;;8.05;33.67;99758.80;1759842;80;21129;-66
2021/04/24 10:50:44;;;;;;;2.65;1.00;;;;;;;7.99;35.81;99757.11;1766034;80;21595;-66
2021/04/24 10:53:29;;;;;;;2.92;0.82;;;;;;;8.26;35.61;99755.75;1770730;80;21522;-67
2021/04/24 10:55:59;;;;;;;3.17;1.02;;;;;;;8.71;37.49;99758.13;1772770;80;21692;-65
2021/04/24 10:58:28;;;;;;;1.60;0.50;;;;;;;9.13;34.67;99757.63;1763594;80;21297;-66
2021/04/24 11:00:59;;;;;;;1.62;0.37;;;;;;;9.23;33.42;99756.33;1759959;80;21172;-67
2021/04/24 11:03:51;;;;;;;2.05;0.42;;;;;;;9.30;35.19;99770.49;1771071;80;21149;-67
2021/04/24 11:06:22;;;;;;;2.60;0.68;;;;;;;9.46;33.69;99762.70;1750809;80;21182;-66
2021/04/24 11:08:52;;;;;;;1.92;0.60;;;;;;;9.49;33.34;99755.94;1751478;80;21152;-67
2021/04/24 11:11:22;;;;;;;3.27;1.00;;;;;;;9.56;32.15;99748.90;1743775;80;21147;-66
2021/04/24 11:13:55;;;;;;;1.72;0.70;;;;;;;9.65;33.40;99764.42;1756371;80;21164;-66
2021/04/24 11:16:26;;;;;;;16.67;10.50;;;;;;;9.68;32.49;99769.86;1764172;80;21186;-66
2021/04/24 11:18:53;;;;;;;1.40;0.60;;;;;;;9.60;33.11;99760.31;1763322;80;21153;-68
2021/04/24 11:21:27;;;;;;;2.50;0.82;;;;;;;9.59;33.46;99759.23;1757393;80;21434;-66
2021/04/24 11:24:14;;;;;;;2.65;0.78;;;;;;;9.31;32.86;99764.52;1711904;80;21321;-66
2021/04/24 11:26:46;;;;;;;1.98;0.70;;;;;;;9.22;30.67;99769.62;1761665;80;21533;-65
2021/04/24 11:29:19;;;;;;;1.62;0.90;;;;;;;9.06;30.60;99767.89;1759659;80;21601;-63
2021/04/24 11:32:07;;;;;;;2.27;0.95;;;;;;;8.77;31.18;99771.47;1763514;80;21179;-64
2021/04/24 11:34:39;;;;;;;3.15;1.15;;;;;;;8.46;32.68;99774.99;1764369;80;21149;-65
2021/04/24 11:37:24;;;;;;;2.75;0.90;;;;;;;8.23;33.94;99772.02;1761519;80;21140;-67
2021/04/24 11:40:22;;;;;;;1.65;0.68;;;;;;;8.41;35.87;99776.29;1756488;80;21141;-65
2021/04/24 11:43:02;;;;;;;2.37;0.70;;;;;;;8.75;35.25;99760.03;1757758;80;21186;-67
2021/04/24 11:45:58;;;;;;;4.20;0.82;;;;;;;9.18;36.56;99767.14;1757010;80;21334;-66
2021/04/24 11:48:48;;;;;;;3.67;1.07;;;;;;;9.45;32.92;99764.33;1761801;80;21182;-66
2021/04/24 11:51:54;;;;;;;3.17;1.00;;;;;;;9.13;33.96;99773.92;1769984;80;21141;-64
2021/04/24 11:54:41;;;;;;;4.92;1.70;;;;;;;8.71;34.67;99763.02;1770411;80;21148;-64